Time;durP1;ratioP1;P1;durP2;ratioP2;P2;SDS_P1;SDS_P2;PMS_P1;PMS_P2;Temp;Humidity;BMP_temperature;BMP_pressure;BME280_temperature;BME280_humidity;BME280_pressure;Samples;Min_cycle;Max_cycle;Signal;HPM_P1;HPM_P2
2021/04/02 00:01:10;;;;;;;93.40;55.40;;;13.70;99.90;;;;;;5071447;28;20679;-79
2021/04/02 00:03:39;;;;;;;87.53;54.37;;;13.60;99.90;;;;;;5071522;28;20290;-79
2021/04/02 00:06:07;;;;;;;93.93;55.93;;;13.50;99.90;;;;;;5071389;28;20294;-79
2021/04/02 00:08:34;;;;;;;92.57;54.93;;;13.50;99.90;;;;;;5071464;28;20362;-79
2021/04/02 00:11:03;;;;;;;96.40;55.00;;;13.50;99.90;;;;;;5071090;28;20234;-79
2021/04/02 00:13:34;;;;;;;87.60;54.10;;;13.40;99.90;;;;;;5071260;28;20301;-79
2021/04/02 00:16:00;;;;;;;92.37;55.13;;;13.30;99.90;;;;;;5071588;28;20285;-79
2021/04/02 00:18:27;;;;;;;96.33;55.13;;;13.30;99.90;;;;;;5071077;28;20195;-79
2021/04/02 00:20:54;;;;;;;93.23;52.37;;;13.20;99.90;;;;;;5071275;28;20640;-79
2021/04/02 00:23:21;;;;;;;95.37;53.13;;;13.20;99.90;;;;;;5071112;28;20303;-79
2021/04/02 00:25:49;;;;;;;94.87;53.47;;;13.10;99.90;;;;;;5071441;28;20747;-79
2021/04/02 00:28:15;;;;;;;86.43;51.90;;;13.10;99.90;;;;;;5071451;28;20278;-79
2021/04/02 00:30:44;;;;;;;93.00;52.90;;;13.10;99.90;;;;;;5071457;28;20232;-79
2021/04/02 00:33:12;;;;;;;92.33;51.70;;;13.00;99.90;;;;;;5070342;28;20284;-79
2021/04/02 00:35:39;;;;;;;87.23;52.77;;;13.00;99.90;;;;;;5071325;28;20766;-79
2021/04/02 00:38:07;;;;;;;85.00;49.60;;;13.00;99.90;;;;;;5070665;28;20226;-78
2021/04/02 00:40:36;;;;;;;85.77;51.17;;;12.90;99.90;;;;;;5071597;28;20347;-79
2021/04/02 00:43:04;;;;;;;92.30;49.67;;;12.80;99.90;;;;;;5071080;28;20292;-79
2021/04/02 00:45:31;;;;;;;86.97;46.93;;;12.90;99.90;;;;;;5071524;28;20288;-79
2021/04/02 00:47:57;;;;;;;88.13;49.43;;;12.80;99.90;;;;;;5071606;28;20786;-79
2021/04/02 00:50:28;;;;;;;89.47;48.50;;;12.80;99.90;;;;;;5074839;28;20550;-79
2021/04/02 00:52:54;;;;;;;89.40;49.00;;;12.70;99.90;;;;;;5074561;28;20281;-79
2021/04/02 00:55:21;;;;;;;86.33;47.07;;;12.60;99.90;;;;;;5074840;28;20651;-79
2021/04/02 00:57:47;;;;;;;89.13;47.87;;;12.60;99.90;;;;;;5074246;28;20280;-79
2021/04/02 01:00:16;;;;;;;80.53;45.43;;;12.60;99.90;;;;;;5073846;28;20223;-79
2021/04/02 01:02:44;;;;;;;80.27;44.80;;;12.50;99.90;;;;;;5074376;28;20277;-78
2021/04/02 01:05:13;;;;;;;85.83;45.27;;;12.40;99.90;;;;;;5074355;28;20205;-78
2021/04/02 01:07:40;;;;;;;75.77;43.23;;;12.40;99.90;;;;;;5074452;28;20311;-79
2021/04/02 01:10:12;;;;;;;75.30;43.30;;;12.40;99.90;;;;;;5074457;28;20206;-79
2021/04/02 01:12:39;;;;;;;79.60;42.10;;;12.40;99.90;;;;;;5074422;28;20334;-78
2021/04/02 01:15:11;;;;;;;73.53;40.60;;;12.40;99.90;;;;;;5074154;28;20206;-79
2021/04/02 01:17:42;;;;;;;77.50;41.50;;;12.30;99.90;;;;;;5074351;28;20279;-78
2021/04/02 01:20:10;;;;;;;69.60;38.23;;;12.30;99.90;;;;;;5074004;28;20290;-79
2021/04/02 01:22:37;;;;;;;66.10;38.17;;;12.30;99.90;;;;;;5073761;28;20314;-79
2021/04/02 01:25:23;;;;;;;75.53;39.00;;;12.30;99.90;;;;;;5073286;28;20621;-79
2021/04/02 01:28:09;;;;;;;66.43;36.03;;;12.20;99.90;;;;;;5074265;28;20243;-79
2021/04/02 01:30:38;;;;;;;69.07;36.87;;;12.20;99.90;;;;;;5072414;28;20617;-79
2021/04/02 01:33:06;;;;;;;71.90;36.87;;;12.10;99.90;;;;;;5073633;28;20283;-79
2021/04/02 01:35:35;;;;;;;61.83;34.67;;;12.10;99.90;;;;;;5073876;28;20249;-79
2021/04/02 01:38:06;;;;;;;61.10;34.67;;;12.10;99.90;;;;;;5074049;28;20281;-78
2021/04/02 01:40:40;;;;;;;70.37;34.53;;;12.10;99.90;;;;;;5073075;28;20209;-79
2021/04/02 01:43:10;;;;;;;60.10;34.83;;;12.00;99.90;;;;;;5074071;28;20240;-78
2021/04/02 01:45:38;;;;;;;67.57;33.77;;;11.90;99.90;;;;;;5074125;28;20196;-79
2021/04/02 01:48:06;;;;;;;61.87;33.53;;;12.00;99.90;;;;;;5073772;28;20764;-79
2021/04/02 01:50:36;;;;;;;61.00;33.40;;;11.80;99.90;;;;;;5073626;28;20290;-78
2021/04/02 01:53:04;;;;;;;62.67;33.90;;;11.80;99.90;;;;;;5073218;28;20723;-78
2021/04/02 01:55:31;;;;;;;62.43;33.90;;;11.70;99.90;;;;;;5073012;28;20203;-78
2021/04/02 01:57:58;;;;;;;55.57;32.17;;;11.70;99.90;;;;;;5073243;28;20196;-79
2021/04/02 02:00:31;;;;;;;61.03;33.43;;;11.70;99.90;;;;;;5073229;28;20286;-78
2021/04/02 02:03:00;;;;;;;61.13;32.57;;;11.60;99.90;;;;;;5073681;28;20290;-78
2021/04/02 02:05:27;;;;;;;53.73;30.50;;;11.60;99.90;;;;;;5073379;28;20301;-79
2021/04/02 02:07:55;;;;;;;59.60;31.30;;;11.50;99.90;;;;;;5073333;28;20316;-79
2021/04/02 02:10:22;;;;;;;64.20;31.83;;;11.50;99.90;;;;;;5072528;28;20665;-79
2021/04/02 02:12:50;;;;;;;56.50;31.10;;;11.50;99.90;;;;;;5072962;28;20298;-78
2021/04/02 02:15:18;;;;;;;55.17;29.67;;;11.50;99.90;;;;;;5073138;28;20357;-77
2021/04/02 02:17:49;;;;;;;59.40;30.77;;;11.40;99.90;;;;;;5072869;28;20290;-77
2021/04/02 02:20:18;;;;;;;57.10;30.70;;;11.40;99.90;;;;;;5072943;28;20238;-78
2021/04/02 02:22:45;;;;;;;54.13;30.57;;;11.40;99.90;;;;;;5065887;28;20663;-78
2021/04/02 02:25:13;;;;;;;52.90;28.37;;;11.40;99.90;;;;;;5072581;28;20614;-78
2021/04/02 02:27:40;;;;;;;57.20;28.93;;;11.30;99.90;;;;;;5072001;28;20706;-77
2021/04/02 02:30:10;;;;;;;52.93;28.77;;;11.30;99.90;;;;;;5072688;28;20297;-77
2021/04/02 02:32:37;;;;;;;54.00;29.20;;;11.30;99.90;;;;;;5072922;28;20824;-77
2021/04/02 02:35:05;;;;;;;57.70;30.10;;;11.20;99.90;;;;;;5072170;28;20782;-78
2021/04/02 02:37:35;;;;;;;50.40;29.07;;;11.20;99.90;;;;;;5072322;28;20354;-78
2021/04/02 02:40:01;;;;;;;53.40;29.77;;;11.20;99.90;;;;;;5072446;28;20290;-78
2021/04/02 02:42:29;;;;;;;55.80;29.40;;;11.20;99.90;;;;;;5072212;28;20291;-77
2021/04/02 02:44:56;;;;;;;54.80;28.47;;;11.00;99.90;;;;;;5072574;28;20290;-77
2021/04/02 02:47:22;;;;;;;56.60;29.27;;;11.00;99.90;;;;;;5072355;28;20706;-77
2021/04/02 02:49:50;;;;;;;51.23;27.87;;;11.00;99.90;;;;;;5052602;28;20287;-77
2021/04/02 02:52:17;;;;;;;54.30;28.67;;;10.90;99.90;;;;;;5062667;28;20610;-77
2021/04/02 02:54:46;;;;;;;47.50;27.30;;;10.80;99.90;;;;;;5071946;28;20735;-77
2021/04/02 02:57:14;;;;;;;56.87;28.10;;;10.80;99.90;;;;;;5072314;28;20201;-78
2021/04/02 02:59:41;;;;;;;53.03;28.00;;;10.70;99.90;;;;;;5071796;28;20277;-77
2021/04/02 03:02:09;;;;;;;55.93;29.03;;;10.70;99.90;;;;;;5072434;28;20226;-77
2021/04/02 03:04:37;;;;;;;55.80;27.40;;;10.70;99.90;;;;;;5072175;28;20289;-77
2021/04/02 03:07:07;;;;;;;56.03;28.43;;;10.60;99.90;;;;;;5071496;28;20314;-77
2021/04/02 03:09:34;;;;;;;58.50;29.07;;;10.50;99.90;;;;;;5072565;28;20238;-79
2021/04/02 03:12:04;;;;;;;55.13;28.10;;;10.50;99.90;;;;;;5071133;28;20286;-77
2021/04/02 03:14:32;;;;;;;53.13;28.70;;;10.50;99.90;;;;;;5072270;28;20346;-77
2021/04/02 03:17:01;;;;;;;47.23;27.47;;;10.50;99.90;;;;;;5071498;28;20736;-77
2021/04/02 03:19:29;;;;;;;48.40;27.20;;;10.50;99.90;;;;;;5071749;28;20690;-77
2021/04/02 03:21:58;;;;;;;53.23;27.30;;;10.50;99.90;;;;;;5071156;28;20368;-79
2021/04/02 03:24:25;;;;;;;51.83;27.00;;;10.40;99.90;;;;;;5071758;28;20698;-79
2021/04/02 03:26:55;;;;;;;63.30;28.53;;;10.30;99.90;;;;;;5071805;28;20223;-79
2021/04/02 03:29:23;;;;;;;50.47;26.50;;;10.30;99.90;;;;;;5072047;28;20288;-79
2021/04/02 03:31:54;;;;;;;50.60;27.43;;;10.30;99.90;;;;;;5071741;28;20280;-79
2021/04/02 03:34:22;;;;;;;49.80;26.63;;;10.20;99.90;;;;;;5072095;28;20296;-79
2021/04/02 03:36:52;;;;;;;50.80;26.70;;;10.20;99.90;;;;;;5071993;28;20288;-79
2021/04/02 03:39:23;;;;;;;51.63;26.97;;;10.20;99.90;;;;;;5071229;28;20232;-79
2021/04/02 03:41:54;;;;;;;49.93;26.30;;;10.10;99.90;;;;;;5071561;28;20285;-78
2021/04/02 03:44:24;;;;;;;43.73;25.80;;;10.10;99.90;;;;;;5071442;28;20702;-79
2021/04/02 03:46:53;;;;;;;47.33;26.20;;;10.10;99.90;;;;;;5071227;28;20577;-78
2021/04/02 03:49:22;;;;;;;51.60;26.57;;;10.00;99.90;;;;;;5071702;28;20285;-78
2021/04/02 03:51:52;;;;;;;46.90;25.73;;;10.00;99.90;;;;;;5070430;28;20303;-79
2021/04/02 03:54:19;;;;;;;48.07;24.47;;;10.00;99.90;;;;;;5070760;28;20233;-79
2021/04/02 03:56:48;;;;;;;45.80;25.70;;;9.90;99.90;;;;;;5071194;28;20799;-79
2021/04/02 03:59:16;;;;;;;46.03;25.70;;;9.90;99.90;;;;;;5070972;28;20315;-78
2021/04/02 04:01:47;;;;;;;48.43;24.43;;;9.80;99.90;;;;;;5071919;28;20403;-79
2021/04/02 04:04:15;;;;;;;46.50;24.60;;;9.80;99.90;;;;;;5071445;28;20289;-79
2021/04/02 04:06:43;;;;;;;53.57;24.23;;;9.80;99.90;;;;;;5070944;28;20229;-79
2021/04/02 04:09:13;;;;;;;42.73;23.63;;;9.80;99.90;;;;;;5070922;28;20279;-79
2021/04/02 04:11:41;;;;;;;48.90;24.70;;;9.70;99.90;;;;;;5070774;28;20199;-78
2021/04/02 04:14:09;;;;;;;38.97;23.77;;;9.70;99.90;;;;;;5071056;28;20200;-79
2021/04/02 04:16:40;;;;;;;47.67;23.50;;;9.70;99.90;;;;;;5071492;28;20341;-79
2021/04/02 04:19:10;;;;;;;47.73;23.40;;;9.70;99.90;;;;;;5071432;28;20199;-78
2021/04/02 04:21:38;;;;;;;45.53;23.17;;;9.70;99.90;;;;;;5062082;28;20277;-78
2021/04/02 04:24:07;;;;;;;46.20;25.13;;;9.60;99.90;;;;;;5071734;28;20389;-78
2021/04/02 04:26:35;;;;;;;43.57;24.23;;;9.60;99.90;;;;;;5075098;28;20288;-78
2021/04/02 04:29:04;;;;;;;43.10;22.63;;;9.50;99.90;;;;;;5075324;28;20226;-79
2021/04/02 04:31:32;;;;;;;44.20;23.30;;;9.50;99.90;;;;;;5075498;28;20294;-78
2021/04/02 04:34:01;;;;;;;42.57;23.97;;;9.50;99.90;;;;;;5075367;28;20296;-79
2021/04/02 04:36:29;;;;;;;40.57;22.47;;;9.50;99.90;;;;;;5075095;28;20233;-78
2021/04/02 04:38:58;;;;;;;39.13;22.87;;;9.50;99.90;;;;;;5074769;28;20195;-79
2021/04/02 04:41:26;;;;;;;46.93;23.40;;;9.40;99.90;;;;;;5075315;28;20291;-78
2021/04/02 04:43:56;;;;;;;37.80;22.60;;;9.40;99.90;;;;;;5075410;28;20293;-78
2021/04/02 04:46:22;;;;;;;40.70;22.73;;;9.40;99.90;;;;;;5074792;28;20291;-78
2021/04/02 04:48:48;;;;;;;40.80;21.67;;;9.30;99.90;;;;;;5074364;28;20256;-79
2021/04/02 04:51:18;;;;;;;36.80;20.73;;;9.40;99.90;;;;;;5075058;28;20206;-79
2021/04/02 04:53:48;;;;;;;42.47;21.80;;;9.30;99.90;;;;;;5074317;28;20333;-79
2021/04/02 04:56:15;;;;;;;42.97;21.30;;;9.30;99.90;;;;;;5074332;28;20286;-79
2021/04/02 04:58:45;;;;;;;39.60;22.27;;;9.30;99.90;;;;;;5074402;28;20282;-79
2021/04/02 05:01:13;;;;;;;36.93;19.93;;;9.40;99.90;;;;;;5074098;28;20199;-79
2021/04/02 05:03:40;;;;;;;39.53;20.37;;;9.30;99.90;;;;;;5073305;28;20744;-81
2021/04/02 05:06:08;;;;;;;38.00;20.60;;;9.30;99.90;;;;;;5074567;28;20241;-81
2021/04/02 05:08:40;;;;;;;42.30;20.13;;;9.30;99.90;;;;;;5073910;28;20223;-81
2021/04/02 05:11:10;;;;;;;40.10;20.67;;;9.30;99.90;;;;;;5067835;28;20203;-81
2021/04/02 05:13:38;;;;;;;40.60;20.53;;;9.30;99.90;;;;;;5073707;28;20685;-82
2021/04/02 05:16:06;;;;;;;35.27;19.60;;;9.30;99.90;;;;;;5074141;28;20227;-80
2021/04/02 05:18:33;;;;;;;37.77;20.20;;;9.20;99.90;;;;;;5073661;28;20231;-79
2021/04/02 05:21:00;;;;;;;38.70;19.70;;;9.20;99.90;;;;;;5074039;28;20210;-80
2021/04/02 05:23:26;;;;;;;36.33;19.67;;;9.30;99.90;;;;;;5073892;28;20720;-80
2021/04/02 05:25:53;;;;;;;38.97;18.80;;;9.20;99.90;;;;;;5073964;28;20286;-80
2021/04/02 05:28:20;;;;;;;35.03;17.93;;;9.10;99.90;;;;;;5073209;28;20305;-78
2021/04/02 05:30:46;;;;;;;36.00;18.60;;;9.10;99.90;;;;;;5072632;28;20329;-80
2021/04/02 05:33:14;;;;;;;34.67;18.07;;;9.20;99.90;;;;;;5072239;28;20286;-78
2021/04/02 05:35:42;;;;;;;39.13;18.20;;;9.20;99.90;;;;;;5069621;28;20729;-78
2021/04/02 05:38:08;;;;;;;31.50;18.60;;;9.10;99.90;;;;;;5065154;28;20278;-77
2021/04/02 05:40:35;;;;;;;34.73;17.10;;;9.20;99.90;;;;;;5067571;28;20238;-77
2021/04/02 05:43:09;;;;;;;33.87;17.43;;;9.20;99.90;;;;;;5069292;28;20282;-79
2021/04/02 05:45:38;;;;;;;35.63;16.90;;;9.10;99.90;;;;;;5072975;28;20202;-79
2021/04/02 05:48:07;;;;;;;30.97;17.03;;;9.10;99.90;;;;;;5072003;28;20255;-81
2021/04/02 05:50:35;;;;;;;34.43;17.13;;;9.10;99.90;;;;;;5063738;28;20293;-79
2021/04/02 05:53:04;;;;;;;27.17;16.03;;;9.10;99.90;;;;;;5065486;28;20248;-80
2021/04/02 05:55:34;;;;;;;32.70;17.37;;;9.00;99.90;;;;;;5061158;28;20687;-81
2021/04/02 05:58:02;;;;;;;29.47;15.53;;;9.10;99.90;;;;;;5063493;28;20206;-80
2021/04/02 06:00:29;;;;;;;26.93;16.97;;;9.10;99.90;;;;;;5057605;28;20661;-80
2021/04/02 06:02:58;;;;;;;30.40;16.17;;;9.10;99.90;;;;;;5069057;28;20195;-81
2021/04/02 06:05:25;;;;;;;31.07;16.00;;;9.10;99.90;;;;;;5072159;28;20294;-80
2021/04/02 06:07:52;;;;;;;31.67;15.70;;;9.10;99.90;;;;;;5072247;28;20257;-80
2021/04/02 06:10:18;;;;;;;29.80;15.97;;;9.10;99.90;;;;;;5071755;28;20602;-80
2021/04/02 06:12:45;;;;;;;31.70;15.93;;;9.00;99.90;;;;;;5072329;28;20218;-80
2021/04/02 06:15:12;;;;;;;30.97;15.90;;;9.00;99.90;;;;;;5071949;28;20195;-80
2021/04/02 06:18:03;;;;;;;29.10;16.40;;;9.00;99.90;;;;;;5071817;28;20286;-79
2021/04/02 06:20:31;;;;;;;29.43;15.53;;;9.10;99.90;;;;;;5071957;28;20202;-80
2021/04/02 06:23:12;;;;;;;32.80;16.37;;;9.10;99.90;;;;;;5072122;28;20314;-80
2021/04/02 06:25:45;;;;;;;26.87;15.30;;;9.10;99.90;;;;;;5071093;28;20641;-80
2021/04/02 06:28:13;;;;;;;25.27;15.33;;;9.10;99.90;;;;;;5072596;28;20218;-81
2021/04/02 06:30:42;;;;;;;29.20;15.33;;;9.10;99.90;;;;;;5071534;28;20278;-80
2021/04/02 06:33:10;;;;;;;23.27;14.37;;;9.20;99.90;;;;;;5056404;28;20209;-79
2021/04/02 06:35:41;;;;;;;30.03;14.70;;;9.20;99.90;;;;;;5071669;28;20274;-80
2021/04/02 06:38:07;;;;;;;25.83;14.60;;;9.30;99.90;;;;;;5071367;28;20695;-80
2021/04/02 06:40:33;;;;;;;24.77;14.10;;;9.40;99.90;;;;;;5072062;28;20286;-80
2021/04/02 06:43:02;;;;;;;28.03;14.20;;;9.40;99.90;;;;;;5072265;28;20292;-79
2021/04/02 06:45:29;;;;;;;24.70;12.93;;;9.40;99.90;;;;;;5071741;28;20296;-80
2021/04/02 06:48:10;;;;;;;25.13;13.30;;;9.40;99.90;;;;;;5072568;28;20314;-80
2021/04/02 06:50:37;;;;;;;23.17;13.03;;;9.50;99.90;;;;;;5072326;28;20255;-80
2021/04/02 06:53:05;;;;;;;21.63;11.87;;;9.60;99.90;;;;;;5071936;28;20241;-81
2021/04/02 06:55:32;;;;;;;25.40;13.37;;;9.60;99.90;;;;;;5071985;28;20195;-80
2021/04/02 06:58:05;;;;;;;22.87;12.07;;;9.70;99.90;;;;;;5072298;28;20289;-79
2021/04/02 07:00:35;;;;;;;24.63;12.37;;;9.80;99.90;;;;;;5071830;28;20200;-79
2021/04/02 07:03:03;;;;;;;20.93;11.90;;;9.80;99.90;;;;;;5072038;28;20341;-80
2021/04/02 07:05:31;;;;;;;21.27;12.30;;;9.80;99.90;;;;;;5071993;28;20288;-80
2021/04/02 07:08:02;;;;;;;24.30;11.83;;;9.90;99.90;;;;;;5071642;28;20220;-79
2021/04/02 07:10:30;;;;;;;22.63;12.07;;;10.00;99.90;;;;;;5087319;28;20199;-80
2021/04/02 07:12:59;;;;;;;25.07;12.13;;;10.20;99.90;;;;;;5071810;28;20382;-80
2021/04/02 07:15:26;;;;;;;19.03;10.47;;;10.10;99.90;;;;;;5071618;28;20554;-80
2021/04/02 07:17:54;;;;;;;23.00;11.10;;;10.20;99.90;;;;;;5071331;28;20736;-79
2021/04/02 07:20:20;;;;;;;21.53;10.63;;;10.40;99.90;;;;;;5071955;28;20211;-79
2021/04/02 07:22:48;;;;;;;17.40;10.47;;;10.40;99.90;;;;;;5071183;28;20317;-79
2021/04/02 07:25:15;;;;;;;19.77;10.37;;;10.40;99.90;;;;;;5071939;28;20286;-80
2021/04/02 07:27:42;;;;;;;21.87;10.93;;;10.60;99.90;;;;;;5070923;28;20224;-79
2021/04/02 07:30:12;;;;;;;19.80;9.77;;;10.70;99.90;;;;;;5072027;28;20253;-80
2021/04/02 07:32:40;;;;;;;23.83;9.50;;;10.90;99.90;;;;;;5071059;28;20813;-80
2021/04/02 07:35:14;;;;;;;21.47;9.63;;;11.00;99.90;;;;;;5071794;28;20286;-79
2021/04/02 07:37:41;;;;;;;18.43;9.77;;;11.10;99.90;;;;;;5071660;28;20282;-80
2021/04/02 07:40:11;;;;;;;16.87;9.23;;;11.30;99.90;;;;;;5071735;28;20819;-80
2021/04/02 07:42:38;;;;;;;19.40;9.20;;;11.20;99.90;;;;;;5071319;28;20206;-79
2021/04/02 07:45:06;;;;;;;20.93;8.93;;;11.20;99.90;;;;;;5071646;28;20237;-80
2021/04/02 07:47:33;;;;;;;20.13;8.90;;;11.30;99.90;;;;;;5071148;28;20741;-81
2021/04/02 07:50:02;;;;;;;18.70;9.33;;;11.50;99.90;;;;;;5071376;28;20286;-80
2021/04/02 07:52:38;;;;;;;15.10;8.37;;;11.60;99.90;;;;;;5071329;28;20617;-80
2021/04/02 07:55:08;;;;;;;18.97;9.10;;;11.70;99.90;;;;;;5071307;28;20197;-80
2021/04/02 07:57:50;;;;;;;18.40;8.47;;;12.00;99.90;;;;;;5072472;28;20205;-80
2021/04/02 08:00:18;;;;;;;17.83;8.70;;;11.90;99.90;;;;;;5075525;28;20290;-79
2021/04/02 08:02:44;;;;;;;17.03;8.77;;;12.20;99.90;;;;;;5075247;28;20246;-81
2021/04/02 08:05:15;;;;;;;13.37;7.87;;;12.10;99.90;;;;;;5075403;28;20199;-81
2021/04/02 08:07:43;;;;;;;13.90;7.77;;;12.40;99.90;;;;;;5074990;28;20215;-81
2021/04/02 08:10:12;;;;;;;16.13;8.17;;;12.20;99.90;;;;;;5075575;28;20203;-83
2021/04/02 08:12:38;;;;;;;16.97;8.53;;;12.40;99.90;;;;;;5075112;28;20408;-82
2021/04/02 08:15:11;;;;;;;15.13;8.67;;;12.40;99.90;;;;;;5075180;28;20202;-81
2021/04/02 08:17:38;;;;;;;13.67;7.93;;;12.50;99.90;;;;;;5075452;28;20282;-81
2021/04/02 08:20:07;;;;;;;14.97;8.10;;;12.50;99.90;;;;;;5074810;28;20293;-81
2021/04/02 08:22:34;;;;;;;18.20;8.83;;;12.50;99.90;;;;;;5075017;28;20242;-81
2021/04/02 08:25:05;;;;;;;14.87;9.03;;;12.80;99.90;;;;;;5074982;28;20218;-81
2021/04/02 08:27:32;;;;;;;14.97;8.20;;;12.50;99.90;;;;;;5074535;28;20310;-82
2021/04/02 08:30:03;;;;;;;16.40;8.10;;;12.70;99.90;;;;;;5075079;28;20289;-82
2021/04/02 08:32:34;;;;;;;13.77;8.50;;;12.80;99.90;;;;;;5074962;28;20200;-80
2021/04/02 08:35:01;;;;;;;13.70;7.90;;;13.00;99.90;;;;;;5074693;28;20286;-82
2021/04/02 08:37:29;;;;;;;21.50;8.60;;;13.20;99.90;;;;;;5074781;28;20903;-81
2021/04/02 08:39:57;;;;;;;18.37;8.23;;;13.00;99.90;;;;;;5074437;28;20657;-81
2021/04/02 08:42:28;;;;;;;13.97;7.97;;;13.60;99.90;;;;;;5074621;28;20298;-82
2021/04/02 08:44:55;;;;;;;12.63;7.80;;;13.90;99.90;;;;;;5074749;28;20202;-82
2021/04/02 08:47:21;;;;;;;14.23;8.27;;;13.70;99.90;;;;;;5074661;28;20306;-82
2021/04/02 08:49:52;;;;;;;13.90;7.73;;;13.30;99.90;;;;;;5074364;28;20289;-81
2021/04/02 08:52:20;;;;;;;15.93;7.87;;;13.80;99.90;;;;;;5074074;28;20675;-82
2021/04/02 08:54:47;;;;;;;14.90;7.70;;;14.20;99.90;;;;;;5073969;28;20692;-81
2021/04/02 08:57:15;;;;;;;15.57;8.50;;;14.10;99.90;;;;;;5074345;28;20288;-82
2021/04/02 08:59:44;;;;;;;13.53;7.93;;;13.60;99.90;;;;;;5074323;28;20598;-81
2021/04/02 09:02:12;;;;;;;12.87;7.57;;;14.50;99.90;;;;;;5074166;28;20778;-80
2021/04/02 09:04:39;;;;;;;17.33;7.30;;;14.60;99.90;;;;;;5074428;28;20282;-82
2021/04/02 09:07:07;;;;;;;14.23;8.10;;;14.30;99.90;;;;;;5073957;28;20290;-81
2021/04/02 09:09:33;;;;;;;15.00;7.30;;;14.60;99.90;;;;;;5073033;28;20289;-81
2021/04/02 09:12:06;;;;;;;14.37;7.23;;;14.70;99.90;;;;;;5074086;28;20295;-80
2021/04/02 09:14:33;;;;;;;13.47;6.97;;;14.80;99.90;;;;;;5073804;28;20755;-80
2021/04/02 09:16:59;;;;;;;13.73;7.20;;;14.80;99.90;;;;;;5074323;28;20290;-80
2021/04/02 09:19:27;;;;;;;14.17;7.43;;;14.90;99.90;;;;;;5074350;28;20289;-81
2021/04/02 09:21:55;;;;;;;16.53;7.60;;;15.20;99.90;;;;;;5073894;28;20318;-82
2021/04/02 09:24:24;;;;;;;13.53;6.63;;;15.50;99.90;;;;;;5073498;28;20247;-80
2021/04/02 09:26:50;;;;;;;12.03;7.20;;;16.10;99.90;;;;;;5073677;28;20299;-81
2021/04/02 09:29:19;;;;;;;13.83;7.47;;;16.40;99.90;;;;;;5073708;28;20219;-81
2021/04/02 09:31:46;;;;;;;14.80;7.37;;;16.00;99.90;;;;;;5074011;28;20660;-82
2021/04/02 09:34:15;;;;;;;15.20;7.90;;;16.40;99.90;;;;;;5073412;28;20242;-81
2021/04/02 09:36:42;;;;;;;12.23;7.17;;;16.40;99.90;;;;;;5073570;28;20200;-81
2021/04/02 09:39:12;;;;;;;12.97;7.67;;;16.80;99.90;;;;;;5072926;28;20778;-82
2021/04/02 09:41:42;;;;;;;13.93;7.37;;;16.60;99.90;;;;;;5073900;28;20213;-82
2021/04/02 09:44:10;;;;;;;14.23;7.07;;;16.70;99.90;;;;;;5073773;28;20294;-81
2021/04/02 09:46:38;;;;;;;12.43;6.97;;;16.40;99.90;;;;;;5073448;28;20750;-81
2021/04/02 09:49:07;;;;;;;11.07;6.90;;;16.60;99.90;;;;;;5073328;28;20282;-82
2021/04/02 09:51:36;;;;;;;12.97;6.87;;;16.20;99.90;;;;;;5088819;28;20293;-81
2021/04/02 09:54:04;;;;;;;11.50;7.13;;;16.40;99.90;;;;;;5072745;28;20633;-82
2021/04/02 09:56:30;;;;;;;10.23;6.63;;;16.50;99.90;;;;;;5073505;28;20294;-82
2021/04/02 09:58:58;;;;;;;11.50;7.30;;;17.00;99.90;;;;;;5073271;28;20286;-81
2021/04/02 10:01:24;;;;;;;13.77;7.33;;;17.60;99.90;;;;;;5073171;28;20231;-82
2021/04/02 10:03:51;;;;;;;12.67;7.33;;;17.80;99.90;;;;;;5073392;28;20281;-82
2021/04/02 10:06:18;;;;;;;13.47;7.70;;;17.00;99.90;;;;;;5073265;28;20198;-81
2021/04/02 10:08:45;;;;;;;14.23;7.87;;;17.20;99.90;;;;;;5072544;28;20230;-82
2021/04/02 10:11:11;;;;;;;14.13;7.40;;;17.10;99.90;;;;;;5073212;28;20290;-81
2021/04/02 10:13:38;;;;;;;15.47;7.97;;;17.60;99.90;;;;;;5073080;28;20310;-82
2021/04/02 10:16:06;;;;;;;14.05;7.75;;;18.30;99.90;;;;;;5072728;28;20738;-81
2021/04/02 10:18:33;;;;;;;12.75;7.45;;;18.70;99.90;;;;;;5072349;28;20203;-82
2021/04/02 10:21:00;;;;;;;11.05;7.60;;;18.50;99.90;;;;;;5072350;28;20229;-82
2021/04/02 10:23:26;;;;;;;12.50;7.38;;;18.50;99.90;;;;;;5071912;28;20227;-82
2021/04/02 10:25:52;;;;;;;11.10;7.43;;;18.40;99.90;;;;;;5072667;28;20199;-82
2021/04/02 10:28:20;;;;;;;14.13;7.90;;;18.30;99.90;;;;;;5072363;28;20332;-81
2021/04/02 10:30:48;;;;;;;11.55;7.80;;;18.00;99.90;;;;;;5072906;28;20196;-82
2021/04/02 10:33:16;;;;;;;12.80;7.63;;;18.30;99.90;;;;;;5072220;28;20260;-81
2021/04/02 10:35:42;;;;;;;12.88;7.75;;;18.70;99.90;;;;;;5072567;28;20290;-82
2021/04/02 10:38:09;;;;;;;13.40;7.45;;;17.80;99.90;;;;;;5072291;28;20230;-82
2021/04/02 10:40:35;;;;;;;12.55;7.80;;;17.90;99.90;;;;;;5072335;28;20611;-82
2021/04/02 10:43:02;;;;;;;14.68;9.05;;;18.00;99.90;;;;;;5072255;28;20285;-82
2021/04/02 10:45:28;;;;;;;11.40;8.60;;;18.50;99.90;;;;;;5072107;28;20285;-82
2021/04/02 10:47:55;;;;;;;11.40;8.23;;;19.00;99.90;;;;;;5072476;28;20326;-82
2021/04/02 10:50:23;;;;;;;12.43;8.25;;;18.90;99.90;;;;;;5072283;28;20261;-82
2021/04/02 10:52:50;;;;;;;12.07;8.52;;;19.00;99.90;;;;;;5071791;28;20195;-81
2021/04/02 10:55:17;;;;;;;13.90;8.63;;;18.60;99.90;;;;;;5071848;28;20744;-82
2021/04/02 10:57:43;;;;;;;16.10;8.88;;;19.40;99.90;;;;;;5072098;28;20274;-82
2021/04/02 11:00:12;;;;;;;12.95;8.40;;;19.20;99.90;;;;;;5071873;28;20739;-82
2021/04/02 11:02:40;;;;;;;13.68;9.27;;;18.60;99.90;;;;;;5071836;28;20203;-76
2021/04/02 11:05:08;;;;;;;18.20;9.25;;;18.50;99.90;;;;;;5071415;28;20245;-76
2021/04/02 11:07:35;;;;;;;12.60;8.20;;;18.80;99.90;;;;;;5071467;28;20282;-76
2021/04/02 11:10:02;;;;;;;15.75;9.43;;;18.80;99.90;;;;;;5071583;28;20237;-75
2021/04/02 11:12:29;;;;;;;14.68;9.30;;;18.60;99.90;;;;;;5071683;28;20353;-75
2021/04/02 11:14:56;;;;;;;15.38;9.73;;;18.20;99.90;;;;;;5071926;28;20214;-76
2021/04/02 11:17:23;;;;;;;12.55;9.63;;;18.50;99.90;;;;;;5071105;28;20245;-75
2021/04/02 11:19:50;;;;;;;13.98;10.02;;;18.70;99.90;;;;;;5071342;28;20630;-76
2021/04/02 11:22:16;;;;;;;13.18;8.85;;;18.20;99.90;;;;;;5071157;28;20277;-76
2021/04/02 11:24:44;;;;;;;15.32;9.15;;;19.20;99.90;;;;;;5070960;28;20282;-80
2021/04/02 11:27:10;;;;;;;13.18;8.77;;;18.50;99.90;;;;;;5071179;28;20226;-77
2021/04/02 11:29:37;;;;;;;13.00;8.93;;;19.10;99.90;;;;;;5056332;28;20219;-76
2021/04/02 11:32:06;;;;;;;15.77;9.20;;;18.70;99.90;;;;;;5061410;28;20402;-76
2021/04/02 11:34:32;;;;;;;14.18;9.35;;;18.60;99.90;;;;;;5070902;28;20242;-77
2021/04/02 11:36:59;;;;;;;12.27;8.57;;;18.50;99.90;;;;;;5071513;28;20245;-76
2021/04/02 11:39:26;;;;;;;17.27;9.80;;;19.40;99.90;;;;;;5069341;28;20282;-76
2021/04/02 11:41:53;;;;;;;13.32;9.13;;;18.70;99.90;;;;;;5070803;28;20213;-76
2021/04/02 11:44:20;;;;;;;14.88;9.52;;;18.60;99.90;;;;;;5070161;28;20245;-76
2021/04/02 11:46:47;;;;;;;14.20;8.52;;;18.60;99.90;;;;;;5070538;28;20264;-76
2021/04/02 11:49:14;;;;;;;13.80;9.05;;;19.00;99.90;;;;;;5070503;28;20310;-76
2021/04/02 11:51:40;;;;;;;15.43;9.93;;;18.50;99.90;;;;;;5070942;28;20316;-77
2021/04/02 11:54:06;;;;;;;14.70;9.05;;;18.30;99.90;;;;;;5071555;28;20289;-76
2021/04/02 11:56:33;;;;;;;15.38;9.90;;;18.20;99.90;;;;;;5068542;28;20201;-76
2021/04/02 11:59:00;;;;;;;14.70;9.80;;;18.90;99.90;;;;;;5062068;28;20228;-76
2021/04/02 12:01:27;;;;;;;13.77;10.68;;;18.40;99.90;;;;;;5063144;28;20286;-75
2021/04/02 12:03:56;;;;;;;14.95;11.18;;;18.70;99.90;;;;;;5062390;28;20199;-74
2021/04/02 12:06:22;;;;;;;16.45;11.70;;;18.40;99.90;;;;;;5068643;28;20711;-75
2021/04/02 12:08:49;;;;;;;16.17;11.13;;;18.50;99.90;;;;;;5071046;28;20702;-75
2021/04/02 12:11:18;;;;;;;15.98;11.40;;;18.80;99.90;;;;;;5062135;28;20685;-75
2021/04/02 12:13:46;;;;;;;16.77;12.20;;;19.00;99.90;;;;;;5063424;28;20223;-75
2021/04/02 12:16:13;;;;;;;15.23;10.75;;;18.60;99.90;;;;;;5062998;28;20256;-75
2021/04/02 12:18:39;;;;;;;17.08;11.23;;;18.60;99.90;;;;;;5055916;28;20238;-75
2021/04/02 12:21:06;;;;;;;16.40;10.88;;;18.60;99.90;;;;;;5051044;28;20298;-75
2021/04/02 12:23:32;;;;;;;17.60;12.13;;;18.50;99.90;;;;;;5050936;28;20404;-74
2021/04/02 12:25:59;;;;;;;16.17;12.18;;;19.10;99.90;;;;;;5065163;28;20294;-75
2021/04/02 12:28:25;;;;;;;17.20;12.55;;;18.60;99.90;;;;;;5070590;28;20305;-75
2021/04/02 12:30:51;;;;;;;20.30;13.85;;;18.40;99.90;;;;;;5070042;28;20283;-75
2021/04/02 12:33:19;;;;;;;18.20;14.35;;;18.00;99.90;;;;;;5070425;28;20348;-76
2021/04/02 12:35:45;;;;;;;23.80;15.95;;;18.50;99.90;;;;;;5070530;28;20294;-76
2021/04/02 12:38:12;;;;;;;20.15;15.48;;;18.00;99.90;;;;;;5071041;28;20195;-76